El Paso International Airport
KELP : now visible

Airfield :











YOU CAN JOIN US ON...

 
LOGIN :

Register | Disclaimer

   EN    FR    IT 

 









Legend :    VFR   Marginal VFR   IFR   Intensive IFR   Very Intensive IFR
Visi :
Ceiling :
>= 8 km
>= 3000ft
5 to 8 km
1000 to 3000 ft
1500m to 5 km
500 to 1000 ft
800 to 1500m
200 to 500 ft
< 800m
< 200 ft
Symbols :   Thunderstorms  Fog  Heavy snow  Heavy precipitations  Wind > 20 kt






- Airport Elevation : 3959 ft
- IATA code : ELP


KELP - El Paso International

CURRENT METAR :
  • 162051Z 10018G25KT 10SM SCT070 BKN110 32/12 A3000 RMK AO2 PK WND 09030/2006 SLP077 TCU DSNT N NE AND SW-W SHRA DSNT SW-W T03220122 56012 $

EXPIRED METARs :
  • 161951Z 08015G24KT 10SM BKN065TCU BKN110 30/13 A3001 RMK AO2 SLP083 TCU OHD-S-W AND DSNT N VCSH S-W T03000128 $
  • 161851Z 04012KT 10SM SCT060 BKN110 BKN200 31/14 A3002 RMK AO2 SLP086 TCU DSNT N AND W-NW SHRA DSNT W T03060139 $

TAF KELP
Valid from the 16 at 18:00 until the 17 at 18:00 UTC


161735Z 1618/1718 09008G17KT P6SM FEW050 SCT110
FM170600 07011KT P6SM VCSH SCT030 OVC070
PROB30 1706/1712 5SM TSRA OVC020CB
FM171200 07008KT P6SM SHRA BKN025 OVC050
KZAB FIR / North America



MET'MAP, your aeronautical weather chart ! - Copyright ORBIFLY December 2007 - Disclaimer

ORBIFLY MET'MAP TEAM :

Programming & Development : Alexandra Zaïnal
Original concept : Baudouin d'Aumeries
Technical & hardware support : Manuel Goepfert
Assistance : Marc-Olivier Méhu




SOURCES & CREDITS :

   NOAA       Earth
Advisory